createdAt,value
2016-12-25T00:00:33.627Z,1018.89
2016-12-25T00:01:32.781Z,1018.88
2016-12-25T00:02:32.741Z,1018.82
2016-12-25T00:03:32.747Z,1018.86
2016-12-25T00:04:32.802Z,1018.88
2016-12-25T00:05:32.759Z,1018.92
2016-12-25T00:06:32.763Z,1018.95
2016-12-25T00:07:32.769Z,1018.89
2016-12-25T00:08:32.776Z,1018.86
2016-12-25T00:09:32.785Z,1018.88
2016-12-25T00:10:32.788Z,1018.83
2016-12-25T00:11:32.857Z,1018.81
2016-12-25T00:12:32.800Z,1018.74
2016-12-25T00:13:32.806Z,1018.73
2016-12-25T00:14:32.813Z,1018.7
2016-12-25T00:15:33.869Z,1018.77
2016-12-25T00:16:32.876Z,1018.72
2016-12-25T00:17:32.832Z,1018.65
2016-12-25T00:18:32.888Z,1018.68
2016-12-25T00:19:32.844Z,1018.66
2016-12-25T00:20:32.851Z,1018.64
2016-12-25T00:21:32.856Z,1018.67
2016-12-25T00:22:32.913Z,1018.67
2016-12-25T00:23:32.870Z,1018.68
2016-12-25T00:24:32.875Z,1018.63
2016-12-25T00:25:32.932Z,1018.67
2016-12-25T00:26:32.888Z,1018.7
2016-12-25T00:27:32.895Z,1018.61
2016-12-25T00:28:32.899Z,1018.64
2016-12-25T00:29:32.907Z,1018.63
2016-12-25T00:30:32.913Z,1018.67
2016-12-25T00:31:32.921Z,1018.62
2016-12-25T00:32:32.925Z,1018.6
2016-12-25T00:33:32.984Z,1018.54
2016-12-25T00:34:32.938Z,1018.66
2016-12-25T00:35:32.944Z,1018.59
2016-12-25T00:36:32.951Z,1018.6
2016-12-25T00:37:33.759Z,1018.55
2016-12-25T00:38:32.964Z,1018.57
2016-12-25T00:39:32.971Z,1018.61
2016-12-25T00:40:32.976Z,1018.56
2016-12-25T00:41:32.983Z,1018.54
2016-12-25T00:42:32.991Z,1018.49
2016-12-25T00:43:32.995Z,1018.53
2016-12-25T00:44:33.003Z,1018.53
2016-12-25T00:45:33.009Z,1018.54
2016-12-25T00:46:33.016Z,1018.56
2016-12-25T00:47:33.023Z,1018.56
2016-12-25T00:48:33.029Z,1018.63
2016-12-25T00:49:33.036Z,1018.71
2016-12-25T00:50:33.041Z,1018.6
2016-12-25T00:51:33.047Z,1018.71
2016-12-25T00:52:33.104Z,1018.71
2016-12-25T00:53:33.062Z,1018.75
2016-12-25T00:54:33.067Z,1018.78
2016-12-25T00:55:33.073Z,1018.79
2016-12-25T00:56:33.080Z,1018.75
2016-12-25T00:57:33.086Z,1018.68
2016-12-25T00:58:33.093Z,1018.69
2016-12-25T00:59:34.001Z,1018.68
2016-12-25T01:00:33.106Z,1018.7
2016-12-25T01:01:33.111Z,1018.62
2016-12-25T01:02:33.118Z,1018.73
2016-12-25T01:03:33.125Z,1018.58
2016-12-25T01:04:33.136Z,1018.69
2016-12-25T01:05:33.138Z,1018.58
2016-12-25T01:06:33.144Z,1018.59
2016-12-25T01:07:33.150Z,1018.6
2016-12-25T01:08:33.158Z,1018.6
2016-12-25T01:09:33.163Z,1018.65
2016-12-25T01:10:33.219Z,1018.62
2016-12-25T01:11:33.227Z,1018.59
2016-12-25T01:12:33.183Z,1018.65
2016-12-25T01:13:33.189Z,1018.59
2016-12-25T01:14:33.195Z,1018.58
2016-12-25T01:15:33.202Z,1018.61
2016-12-25T01:16:33.263Z,1018.55
2016-12-25T01:17:33.215Z,1018.59
2016-12-25T01:18:33.221Z,1018.65
2016-12-25T01:19:33.276Z,1018.57
2016-12-25T01:20:33.234Z,1018.54
2016-12-25T01:21:34.192Z,1018.46
2016-12-25T01:22:33.297Z,1018.42
2016-12-25T01:23:33.303Z,1018.41
2016-12-25T01:24:33.261Z,1018.42
2016-12-25T01:25:33.267Z,1018.38
2016-12-25T01:26:33.272Z,1018.4
2016-12-25T01:27:33.277Z,1018.32
2016-12-25T01:28:33.285Z,1018.35
2016-12-25T01:29:33.291Z,1018.32
2016-12-25T01:30:33.297Z,1018.34
2016-12-25T01:31:33.304Z,1018.33
2016-12-25T01:32:33.311Z,1018.3
2016-12-25T01:33:33.317Z,1018.32
2016-12-25T01:34:33.323Z,1018.28
2016-12-25T01:35:33.380Z,1018.28
2016-12-25T01:36:33.337Z,1018.31
2016-12-25T01:37:33.344Z,1018.26
2016-12-25T01:38:33.400Z,1018.23
2016-12-25T01:39:33.356Z,1018.22
2016-12-25T01:40:33.411Z,1018.27
2016-12-25T01:41:33.368Z,1018.27
2016-12-25T01:42:33.376Z,1018.3
2016-12-25T01:43:33.932Z,1018.24
2016-12-25T01:44:33.389Z,1018.24
2016-12-25T01:45:33.394Z,1018.24
2016-12-25T01:46:33.451Z,1018.21
2016-12-25T01:47:33.408Z,1018.21
2016-12-25T01:48:33.413Z,1018.23
2016-12-25T01:49:33.421Z,1018.14
2016-12-25T01:50:33.426Z,1018.1
2016-12-25T01:51:33.436Z,1018.11
2016-12-25T01:52:33.439Z,1018.14
2016-12-25T01:53:33.446Z,1018.16
2016-12-25T01:54:33.453Z,1018.12
2016-12-25T01:55:33.458Z,1018.19
2016-12-25T01:56:33.465Z,1018.18
2016-12-25T01:57:33.472Z,1018.08
2016-12-25T01:58:34.279Z,1018.12
2016-12-25T01:59:33.483Z,1018.11
2016-12-25T02:00:33.490Z,1018.09
2016-12-25T02:01:33.496Z,1018.09
2016-12-25T02:02:33.506Z,1018.11
2016-12-25T02:03:33.559Z,1018.02
2016-12-25T02:04:33.516Z,1018.05
2016-12-25T02:05:33.521Z,1018.01
2016-12-25T02:06:33.529Z,1017.97
2016-12-25T02:07:33.535Z,1017.95
2016-12-25T02:08:33.592Z,1017.95
2016-12-25T02:09:33.548Z,1018.03
2016-12-25T02:10:33.553Z,1017.98
2016-12-25T02:11:33.561Z,1018.05
2016-12-25T02:12:33.568Z,1018.06
2016-12-25T02:13:33.624Z,1018.1
2016-12-25T02:14:33.579Z,1018.19
2016-12-25T02:15:33.585Z,1018.16
2016-12-25T02:16:33.593Z,1018.17
2016-12-25T02:17:33.600Z,1018.17
2016-12-25T02:18:33.606Z,1018.16
2016-12-25T02:19:33.611Z,1018.23
2016-12-25T02:20:34.018Z,1018.2
2016-12-25T02:21:33.624Z,1018.2
2016-12-25T02:22:33.630Z,1018.16
2016-12-25T02:23:33.637Z,1018.21
2016-12-25T02:24:33.643Z,1018.09
2016-12-25T02:25:33.650Z,1018.14
2016-12-25T02:26:33.658Z,1018.16
2016-12-25T02:27:33.662Z,1018.18
2016-12-25T02:28:33.669Z,1018.19
2016-12-25T02:29:33.676Z,1018.11
2016-12-25T02:30:33.683Z,1018.06
2016-12-25T02:31:33.688Z,1018
2016-12-25T02:32:33.744Z,1018.01
2016-12-25T02:33:33.750Z,1018
2016-12-25T02:34:33.708Z,1017.91
2016-12-25T02:35:33.764Z,1017.97
2016-12-25T02:36:33.719Z,1018
2016-12-25T02:37:33.726Z,1017.93
2016-12-25T02:38:33.784Z,1017.96
2016-12-25T02:39:33.739Z,1017.91
2016-12-25T02:40:33.746Z,1017.91
2016-12-25T02:41:33.751Z,1017.91
2016-12-25T02:42:33.908Z,1017.91
2016-12-25T02:43:33.763Z,1017.95
2016-12-25T02:44:33.769Z,1017.94
2016-12-25T02:45:33.778Z,1017.98
2016-12-25T02:46:33.783Z,1017.98
2016-12-25T02:47:33.814Z,1017.98
2016-12-25T02:48:33.796Z,1017.95
2016-12-25T02:49:33.802Z,1018.02
2016-12-25T02:50:33.807Z,1017.98
2016-12-25T02:51:33.817Z,1017.96
2016-12-25T02:52:33.872Z,1017.95
2016-12-25T02:53:33.828Z,1017.99
2016-12-25T02:54:33.832Z,1017.99
2016-12-25T02:55:33.840Z,1017.93
2016-12-25T02:56:33.847Z,1017.96
2016-12-25T02:57:33.851Z,1017.96
2016-12-25T02:58:33.858Z,1017.97
2016-12-25T02:59:33.915Z,1017.94
2016-12-25T03:00:33.871Z,1017.85
2016-12-25T03:01:33.877Z,1017.86
2016-12-25T03:02:33.884Z,1017.85
2016-12-25T03:03:33.890Z,1017.85
2016-12-25T03:04:33.898Z,1017.87
2016-12-25T03:05:33.902Z,1017.91
2016-12-25T03:06:34.911Z,1017.88
2016-12-25T03:07:33.914Z,1017.88
2016-12-25T03:08:33.923Z,1017.9
2016-12-25T03:09:33.977Z,1017.87
2016-12-25T03:10:33.933Z,1017.87
2016-12-25T03:11:33.942Z,1017.82
2016-12-25T03:12:33.948Z,1017.72
2016-12-25T03:13:33.954Z,1017.7
2016-12-25T03:14:33.960Z,1017.54
2016-12-25T03:15:33.968Z,1017.55
2016-12-25T03:16:33.973Z,1017.52
2016-12-25T03:17:34.031Z,1017.44
2016-12-25T03:18:33.987Z,1017.42
2016-12-25T03:19:33.995Z,1017.44
2016-12-25T03:20:33.999Z,1017.4
2016-12-25T03:21:34.005Z,1017.47
2016-12-25T03:22:34.063Z,1017.49
2016-12-25T03:23:34.017Z,1017.54
2016-12-25T03:24:34.074Z,1017.71
2016-12-25T03:25:34.030Z,1017.63
2016-12-25T03:26:34.038Z,1017.52
2016-12-25T03:27:34.043Z,1017.46
2016-12-25T03:28:34.350Z,1017.54
2016-12-25T03:29:34.057Z,1017.49
2016-12-25T03:30:34.061Z,1017.44
2016-12-25T03:31:34.107Z,1017.43
2016-12-25T03:32:34.075Z,1017.45
2016-12-25T03:33:34.080Z,1017.5
2016-12-25T03:34:34.087Z,1017.49
2016-12-25T03:35:34.094Z,1017.52
2016-12-25T03:36:34.100Z,1017.39
2016-12-25T03:37:34.145Z,1017.4
2016-12-25T03:38:34.113Z,1017.42
2016-12-25T03:39:34.119Z,1017.4
2016-12-25T03:40:34.125Z,1017.36
2016-12-25T03:41:34.133Z,1017.41
2016-12-25T03:42:34.137Z,1017.37
2016-12-25T03:43:34.195Z,1017.41
2016-12-25T03:44:34.151Z,1017.34
2016-12-25T03:45:34.157Z,1017.4
2016-12-25T03:46:35.003Z,1017.32
2016-12-25T03:47:34.220Z,1017.42
2016-12-25T03:48:34.476Z,1017.48
2016-12-25T03:49:34.182Z,1017.41
2016-12-25T03:50:34.188Z,1017.45
2016-12-25T03:51:34.197Z,1017.45
2016-12-25T03:52:34.252Z,1017.41
2016-12-25T03:53:34.208Z,1017.35
2016-12-25T03:54:34.264Z,1017.3
2016-12-25T03:55:34.314Z,1017.28
2016-12-25T03:56:34.224Z,1017.38
2016-12-25T03:57:34.231Z,1017.26
2016-12-25T03:58:34.238Z,1017.21
2016-12-25T03:59:34.295Z,1017.27
2016-12-25T04:00:34.252Z,1017.16
2016-12-25T04:01:34.257Z,1017.11
2016-12-25T04:02:34.264Z,1017.11
2016-12-25T04:03:34.270Z,1017.15
2016-12-25T04:04:34.359Z,1017.12
2016-12-25T04:05:34.282Z,1017.14
2016-12-25T04:06:34.367Z,1017.12
2016-12-25T04:07:34.295Z,1017.22
2016-12-25T04:08:34.301Z,1017.29
2016-12-25T04:09:34.358Z,1017.19
2016-12-25T04:10:34.314Z,1017.2
2016-12-25T04:11:34.319Z,1017.14
2016-12-25T04:12:34.326Z,1017.08
2016-12-25T04:13:34.414Z,1017.07
2016-12-25T04:14:34.339Z,1017.08
2016-12-25T04:15:34.343Z,1017.07
2016-12-25T04:16:34.350Z,1017.13
2016-12-25T04:17:34.357Z,1017.08
2016-12-25T04:18:34.411Z,1017.07
2016-12-25T04:19:34.369Z,1017.04
2016-12-25T04:20:34.375Z,1017
2016-12-25T04:21:34.432Z,1016.99
2016-12-25T04:22:34.385Z,1016.98
2016-12-25T04:23:34.394Z,1017.02
2016-12-25T04:24:34.400Z,1016.98
2016-12-25T04:25:34.484Z,1017.02
2016-12-25T04:26:34.412Z,1017.01
2016-12-25T04:27:34.418Z,1017.04
2016-12-25T04:28:34.428Z,1017.01
2016-12-25T04:29:34.439Z,1017.03
2016-12-25T04:30:34.488Z,1016.99
2016-12-25T04:31:34.444Z,1016.93
2016-12-25T04:32:34.520Z,1016.92
2016-12-25T04:33:34.456Z,1017
2016-12-25T04:34:34.476Z,1017.06
2016-12-25T04:35:34.468Z,1017.04
2016-12-25T04:36:34.570Z,1016.98
2016-12-25T04:37:34.482Z,1017.04
2016-12-25T04:38:34.534Z,1017.03
2016-12-25T04:39:34.493Z,1017
2016-12-25T04:40:34.500Z,1017.1
2016-12-25T04:41:34.595Z,1017.1
2016-12-25T04:42:34.563Z,1017.15
2016-12-25T04:43:35.261Z,1017.11
2016-12-25T04:44:34.526Z,1017.07
2016-12-25T04:45:35.248Z,1017.07
2016-12-25T04:46:34.638Z,1017.11
2016-12-25T04:47:34.617Z,1017.13
2016-12-25T04:48:34.602Z,1017.16
2016-12-25T04:49:34.558Z,1017.13
2016-12-25T04:50:34.574Z,1017.11
2016-12-25T04:51:34.619Z,1017.08
2016-12-25T04:52:34.627Z,1017.08
2016-12-25T04:53:34.638Z,1017.02
2016-12-25T04:54:34.591Z,1017.06
2016-12-25T04:55:34.647Z,1017.02
2016-12-25T04:56:34.660Z,1017
2016-12-25T04:57:34.609Z,1016.97
2016-12-25T04:58:34.614Z,1016.96
2016-12-25T04:59:34.626Z,1016.84
2016-12-25T05:00:34.628Z,1016.89
2016-12-25T05:01:34.647Z,1016.9
2016-12-25T05:02:34.688Z,1016.95
2016-12-25T05:03:34.647Z,1016.89
2016-12-25T05:04:34.715Z,1016.91
2016-12-25T05:05:34.660Z,1016.82
2016-12-25T05:06:34.761Z,1016.81
2016-12-25T05:07:34.723Z,1016.7
2016-12-25T05:08:34.678Z,1016.63
2016-12-25T05:09:34.683Z,1016.72
2016-12-25T05:10:34.744Z,1016.76
2016-12-25T05:11:34.930Z,1016.89
2016-12-25T05:12:34.754Z,1016.93
2016-12-25T05:13:35.011Z,1016.84
2016-12-25T05:14:34.733Z,1016.87
2016-12-25T05:15:34.721Z,1016.85
2016-12-25T05:16:34.779Z,1016.72
2016-12-25T05:17:34.844Z,1016.68
2016-12-25T05:18:35.712Z,1016.57
2016-12-25T05:19:34.745Z,1016.53
2016-12-25T05:20:34.841Z,1016.64
2016-12-25T05:21:34.759Z,1016.69
2016-12-25T05:22:34.766Z,1016.66
2016-12-25T05:23:34.821Z,1016.67
2016-12-25T05:24:34.778Z,1016.62
2016-12-25T05:25:34.853Z,1016.6
2016-12-25T05:26:34.791Z,1016.53
2016-12-25T05:27:34.897Z,1016.57
2016-12-25T05:28:34.805Z,1016.46
2016-12-25T05:29:34.808Z,1016.5
2016-12-25T05:30:34.818Z,1016.44
2016-12-25T05:31:34.820Z,1016.45
2016-12-25T05:32:35.576Z,1016.46
2016-12-25T05:33:34.859Z,1016.51
2016-12-25T05:34:34.928Z,1016.51
2016-12-25T05:35:34.846Z,1016.52
2016-12-25T05:36:34.936Z,1016.49
2016-12-25T05:37:34.932Z,1016.5
2016-12-25T05:38:34.868Z,1016.59
2016-12-25T05:39:35.321Z,1016.55
2016-12-25T05:40:34.877Z,1016.61
2016-12-25T05:41:34.888Z,1016.66
2016-12-25T05:42:34.974Z,1016.6
2016-12-25T05:43:34.897Z,1016.55
2016-12-25T05:44:34.903Z,1016.4
2016-12-25T05:45:34.910Z,1016.48
2016-12-25T05:46:35.435Z,1016.46
2016-12-25T05:47:34.968Z,1016.43
2016-12-25T05:48:34.929Z,1016.5
2016-12-25T05:49:34.935Z,1016.51
2016-12-25T05:50:34.941Z,1016.6
2016-12-25T05:51:34.949Z,1016.48
2016-12-25T05:52:35.011Z,1016.59
2016-12-25T05:53:35.009Z,1016.56
2016-12-25T05:54:34.967Z,1016.65
2016-12-25T05:55:35.022Z,1016.53
2016-12-25T05:56:35.058Z,1016.49
2016-12-25T05:57:34.984Z,1016.52
2016-12-25T05:58:35.071Z,1016.44
2016-12-25T05:59:35.053Z,1016.57
2016-12-25T06:00:35.103Z,1016.59
2016-12-25T06:01:35.009Z,1016.56
2016-12-25T06:02:35.016Z,1016.56
2016-12-25T06:03:35.022Z,1016.52
2016-12-25T06:04:35.030Z,1016.51
2016-12-25T06:05:35.034Z,1016.5
2016-12-25T06:06:35.042Z,1016.59
2016-12-25T06:07:35.057Z,1016.51
2016-12-25T06:08:35.054Z,1016.48
2016-12-25T06:09:35.146Z,1016.45
2016-12-25T06:10:35.149Z,1016.32
2016-12-25T06:11:35.077Z,1016.35
2016-12-25T06:12:35.163Z,1016.39
2016-12-25T06:13:35.135Z,1016.42
2016-12-25T06:14:35.092Z,1016.41
2016-12-25T06:15:35.096Z,1016.46
2016-12-25T06:16:35.104Z,1016.46
2016-12-25T06:17:35.133Z,1016.44
2016-12-25T06:18:35.203Z,1016.46
2016-12-25T06:19:35.121Z,1016.43
2016-12-25T06:20:35.220Z,1016.44
2016-12-25T06:21:35.209Z,1016.53
2016-12-25T06:22:35.210Z,1016.56
2016-12-25T06:23:35.148Z,1016.56
2016-12-25T06:24:35.227Z,1016.51
2016-12-25T06:25:35.161Z,1016.5
2016-12-25T06:26:35.216Z,1016.53
2016-12-25T06:27:35.223Z,1016.64
2016-12-25T06:28:35.276Z,1016.61
2016-12-25T06:29:35.186Z,1016.58
2016-12-25T06:30:35.193Z,1016.61
2016-12-25T06:31:35.216Z,1016.55
2016-12-25T06:32:35.205Z,1016.58
2016-12-25T06:33:35.296Z,1016.62
2016-12-25T06:34:35.265Z,1016.62
2016-12-25T06:35:35.274Z,1016.64
2016-12-25T06:36:35.379Z,1016.64
2016-12-25T06:37:35.321Z,1016.63
2016-12-25T06:38:35.323Z,1016.61
2016-12-25T06:39:35.321Z,1016.55
2016-12-25T06:40:35.347Z,1016.56
2016-12-25T06:41:35.262Z,1016.45
2016-12-25T06:42:35.299Z,1016.47
2016-12-25T06:43:35.324Z,1016.52
2016-12-25T06:44:35.278Z,1016.47
2016-12-25T06:45:35.392Z,1016.45
2016-12-25T06:46:35.291Z,1016.45
2016-12-25T06:47:35.371Z,1016.51
2016-12-25T06:48:36.428Z,1016.45
2016-12-25T06:49:35.378Z,1016.57
2016-12-25T06:50:35.399Z,1016.54
2016-12-25T06:51:35.324Z,1016.62
2016-12-25T06:52:35.351Z,1016.52
2016-12-25T06:53:35.399Z,1016.49
2016-12-25T06:54:35.342Z,1016.41
2016-12-25T06:55:35.347Z,1016.36
2016-12-25T06:56:35.428Z,1016.38
2016-12-25T06:57:35.434Z,1016.43
2016-12-25T06:58:35.475Z,1016.39
2016-12-25T06:59:35.433Z,1016.37
2016-12-25T07:00:35.380Z,1016.39
2016-12-25T07:01:35.387Z,1016.36
2016-12-25T07:02:35.392Z,1016.37
2016-12-25T07:03:35.400Z,1016.28
2016-12-25T07:04:35.455Z,1016.3
2016-12-25T07:05:35.411Z,1016.26
2016-12-25T07:06:35.453Z,1016.33
2016-12-25T07:07:35.456Z,1016.32
2016-12-25T07:08:35.543Z,1016.33
2016-12-25T07:09:35.488Z,1016.35
2016-12-25T07:10:35.525Z,1016.34
2016-12-25T07:11:35.498Z,1016.33
2016-12-25T07:12:35.454Z,1016.3
2016-12-25T07:13:35.460Z,1016.3
2016-12-25T07:14:35.467Z,1016.26
2016-12-25T07:15:35.723Z,1016.24
2016-12-25T07:16:35.546Z,1016.34
2016-12-25T07:17:35.483Z,1016.25
2016-12-25T07:18:35.536Z,1016.22
2016-12-25T07:19:35.584Z,1016.29
2016-12-25T07:20:35.578Z,1016.31
2016-12-25T07:21:35.530Z,1016.25
2016-12-25T07:22:35.515Z,1016.21
2016-12-25T07:23:35.549Z,1016.28
2016-12-25T07:24:35.591Z,1016.24
2016-12-25T07:25:36.133Z,1016.27
2016-12-25T07:26:35.540Z,1016.29
2016-12-25T07:27:35.576Z,1016.26
2016-12-25T07:28:35.611Z,1016.29
2016-12-25T07:29:35.559Z,1016.32
2016-12-25T07:30:35.642Z,1016.35
2016-12-25T07:31:35.642Z,1016.32
2016-12-25T07:32:35.649Z,1016.38
2016-12-25T07:33:35.648Z,1016.38
2016-12-25T07:34:35.651Z,1016.41
2016-12-25T07:35:35.647Z,1016.38
2016-12-25T07:36:35.602Z,1016.4
2016-12-25T07:37:35.692Z,1016.41
2016-12-25T07:38:35.674Z,1016.38
2016-12-25T07:39:35.618Z,1016.41
2016-12-25T07:40:35.711Z,1016.43
2016-12-25T07:41:35.705Z,1016.46
2016-12-25T07:42:35.735Z,1016.48
2016-12-25T07:43:35.726Z,1016.52
2016-12-25T07:44:35.722Z,1016.48
2016-12-25T07:45:35.749Z,1016.49
2016-12-25T07:46:35.756Z,1016.54
2016-12-25T07:47:35.739Z,1016.55
2016-12-25T07:48:36.529Z,1016.55
2016-12-25T07:49:35.732Z,1016.59
2016-12-25T07:50:35.738Z,1016.67
2016-12-25T07:51:35.695Z,1016.6
2016-12-25T07:52:35.732Z,1016.5
2016-12-25T07:53:35.735Z,1016.55
2016-12-25T07:54:35.793Z,1016.58
2016-12-25T07:55:35.739Z,1016.57
2016-12-25T07:56:35.814Z,1016.58
2016-12-25T07:57:35.735Z,1016.55
2016-12-25T07:58:35.740Z,1016.63
2016-12-25T07:59:35.846Z,1016.66
2016-12-25T08:00:35.851Z,1016.7
2016-12-25T08:01:35.757Z,1016.66
2016-12-25T08:02:35.826Z,1016.72
2016-12-25T08:03:35.769Z,1016.66
2016-12-25T08:04:35.779Z,1016.62
2016-12-25T08:05:35.884Z,1016.66
2016-12-25T08:06:35.858Z,1016.64
2016-12-25T08:07:35.795Z,1016.72
2016-12-25T08:08:35.801Z,1016.7
2016-12-25T08:09:35.810Z,1016.69
2016-12-25T08:10:35.905Z,1016.68
2016-12-25T08:11:35.900Z,1016.74
2016-12-25T08:12:35.909Z,1016.73
2016-12-25T08:13:35.831Z,1016.68
2016-12-25T08:14:35.910Z,1016.69
2016-12-25T08:15:35.895Z,1016.66
2016-12-25T08:16:35.899Z,1016.76
2016-12-25T08:17:35.898Z,1016.65
2016-12-25T08:18:35.912Z,1016.7
2016-12-25T08:19:35.887Z,1016.72
2016-12-25T08:20:35.989Z,1016.73
2016-12-25T08:21:35.931Z,1016.78
2016-12-25T08:22:35.981Z,1016.82
2016-12-25T08:23:35.953Z,1016.79
2016-12-25T08:24:35.898Z,1016.8
2016-12-25T08:25:36.001Z,1016.86
2016-12-25T08:26:35.911Z,1016.92
2016-12-25T08:27:35.918Z,1016.96
2016-12-25T08:28:35.985Z,1016.89
2016-12-25T08:29:36.017Z,1016.82
2016-12-25T08:30:35.996Z,1016.8
2016-12-25T08:31:35.991Z,1016.83
2016-12-25T08:32:36.041Z,1016.77
2016-12-25T08:33:36.004Z,1016.86
2016-12-25T08:34:35.992Z,1016.82
2016-12-25T08:35:36.060Z,1016.88
2016-12-25T08:36:36.023Z,1016.91
2016-12-25T08:37:35.978Z,1016.95
2016-12-25T08:38:35.983Z,1016.93
2016-12-25T08:39:36.043Z,1017.03
2016-12-25T08:40:35.997Z,1017.01
2016-12-25T08:41:36.002Z,1017.03
2016-12-25T08:42:36.010Z,1017.1
2016-12-25T08:43:36.015Z,1017.05
2016-12-25T08:44:36.101Z,1017.14
2016-12-25T08:45:36.132Z,1017.07
2016-12-25T08:46:36.377Z,1017.12
2016-12-25T08:47:36.040Z,1017.08
2016-12-25T08:48:36.135Z,1017.19
2016-12-25T08:49:36.135Z,1017.1
2016-12-25T08:50:36.058Z,1017.18
2016-12-25T08:51:36.109Z,1017.14
2016-12-25T08:52:36.142Z,1017.21
2016-12-25T08:53:36.125Z,1017.07
2016-12-25T08:54:36.133Z,1017.19
2016-12-25T08:55:36.190Z,1017.33
2016-12-25T08:56:36.094Z,1017.22
2016-12-25T08:57:36.101Z,1017.24
2016-12-25T08:58:36.159Z,1017.31
2016-12-25T08:59:36.830Z,1017.19
2016-12-25T09:00:36.185Z,1017.24
2016-12-25T09:01:36.215Z,1017.21
2016-12-25T09:02:36.996Z,1017.22
2016-12-25T09:03:36.138Z,1017.19
2016-12-25T09:04:36.144Z,1017.27
2016-12-25T09:05:37.281Z,1017.29
2016-12-25T09:06:36.158Z,1017.3
2016-12-25T09:07:36.213Z,1017.27
2016-12-25T09:08:36.255Z,1017.24
2016-12-25T09:09:36.177Z,1017.23
2016-12-25T09:10:36.261Z,1017.29
2016-12-25T09:11:36.188Z,1017.28
2016-12-25T09:12:36.245Z,1017.27
2016-12-25T09:13:36.252Z,1017.28
2016-12-25T09:14:36.274Z,1017.33
2016-12-25T09:15:36.297Z,1017.34
2016-12-25T09:16:36.308Z,1017.22
2016-12-25T09:17:36.226Z,1017.24
2016-12-25T09:18:36.231Z,1017.26
2016-12-25T09:19:36.268Z,1017.21
2016-12-25T09:20:36.243Z,1017.18
2016-12-25T09:21:36.300Z,1017.2
2016-12-25T09:22:36.255Z,1017.22
2016-12-25T09:23:36.343Z,1017.18
2016-12-25T09:24:36.331Z,1017.22
2016-12-25T09:25:36.357Z,1017.2
2016-12-25T09:26:36.308Z,1017.17
2016-12-25T09:27:36.410Z,1017.19
2016-12-25T09:28:36.379Z,1017.11
2016-12-25T09:29:36.350Z,1017.09
2016-12-25T09:30:36.330Z,1017.13
2016-12-25T09:31:36.312Z,1017.11
2016-12-25T09:32:36.405Z,1017.1
2016-12-25T09:33:36.325Z,1017.14
2016-12-25T09:34:36.386Z,1017.11
2016-12-25T09:35:36.338Z,1017.13
2016-12-25T09:36:36.396Z,1017.14
2016-12-25T09:37:36.350Z,1017.12
2016-12-25T09:38:36.428Z,1017.08
2016-12-25T09:39:36.382Z,1017.14
2016-12-25T09:40:36.469Z,1017.19
2016-12-25T09:41:36.376Z,1017.2
2016-12-25T09:42:36.382Z,1017.18
2016-12-25T09:43:36.388Z,1017.21
2016-12-25T09:44:36.485Z,1017.18
2016-12-25T09:45:36.436Z,1017.16
2016-12-25T09:46:36.483Z,1017.21
2016-12-25T09:47:36.442Z,1017.16
2016-12-25T09:48:36.470Z,1017.24
2016-12-25T09:49:37.124Z,1017.16
2016-12-25T09:50:36.521Z,1017.17
2016-12-25T09:51:36.532Z,1017.16
2016-12-25T09:52:36.444Z,1017.13
2016-12-25T09:53:36.497Z,1017.21
2016-12-25T09:54:36.552Z,1017.2
2016-12-25T09:55:36.526Z,1017.16
2016-12-25T09:56:36.470Z,1017.2
2016-12-25T09:57:36.584Z,1017.14
2016-12-25T09:58:36.481Z,1017.27
2016-12-25T09:59:36.577Z,1017.17
2016-12-25T10:00:36.579Z,1017.21
2016-12-25T10:01:36.499Z,1017.18
2016-12-25T10:02:36.516Z,1017.21
2016-12-25T10:03:36.562Z,1017.1
2016-12-25T10:04:36.532Z,1017.14
2016-12-25T10:05:36.875Z,1017.16
2016-12-25T10:06:36.580Z,1017.2
2016-12-25T10:07:36.539Z,1017.18
2016-12-25T10:08:36.544Z,1017.24
2016-12-25T10:09:36.625Z,1017.28
2016-12-25T10:10:36.635Z,1017.17
2016-12-25T10:11:36.638Z,1017.24
2016-12-25T10:12:36.612Z,1017.31
2016-12-25T10:13:36.611Z,1017.28
2016-12-25T10:14:36.657Z,1017.32
2016-12-25T10:15:36.638Z,1017.22
2016-12-25T10:16:36.683Z,1017.26
2016-12-25T10:17:36.598Z,1017.24
2016-12-25T10:18:36.655Z,1017.23
2016-12-25T10:19:36.611Z,1017.29
2016-12-25T10:20:36.617Z,1017.33
2016-12-25T10:21:36.623Z,1017.26
2016-12-25T10:22:36.630Z,1017.26
2016-12-25T10:23:36.716Z,1017.25
2016-12-25T10:24:36.641Z,1017.16
2016-12-25T10:25:36.698Z,1017.21
2016-12-25T10:26:36.740Z,1017.29
2016-12-25T10:27:36.710Z,1017.21
2016-12-25T10:28:36.737Z,1017.17
2016-12-25T10:29:36.801Z,1017.13
2016-12-25T10:30:36.739Z,1017.21
2016-12-25T10:31:36.762Z,1017.14
2016-12-25T10:32:36.692Z,1017.19
2016-12-25T10:33:36.699Z,1017.22
2016-12-25T10:34:36.797Z,1017.33
2016-12-25T10:35:36.786Z,1017.24
2016-12-25T10:36:36.767Z,1017.15
2016-12-25T10:37:36.723Z,1017.22
2016-12-25T10:38:36.732Z,1017.23
2016-12-25T10:39:36.755Z,1017.21
2016-12-25T10:40:36.743Z,1017.25
2016-12-25T10:41:36.748Z,1017.29
2016-12-25T10:42:36.791Z,1017.21
2016-12-25T10:43:36.759Z,1017.21
2016-12-25T10:44:37.557Z,1017.21
2016-12-25T10:45:36.872Z,1017.19
2016-12-25T10:46:36.855Z,1017.18
2016-12-25T10:47:36.784Z,1017.19
2016-12-25T10:48:36.826Z,1017.13
2016-12-25T10:49:36.796Z,1017.19
2016-12-25T10:50:36.853Z,1017.21
2016-12-25T10:51:36.882Z,1017.2
2016-12-25T10:52:36.844Z,1017.21
2016-12-25T10:53:36.821Z,1017.14
2016-12-25T10:54:36.827Z,1017.17
2016-12-25T10:55:36.834Z,1017.18
2016-12-25T10:56:36.915Z,1017.18
2016-12-25T10:57:36.888Z,1017.18
2016-12-25T10:58:36.903Z,1017.13
2016-12-25T10:59:36.860Z,1017.16
2016-12-25T11:00:36.863Z,1017.16
2016-12-25T11:01:36.957Z,1017.16
2016-12-25T11:02:36.959Z,1017.08
2016-12-25T11:03:36.884Z,1017.22
2016-12-25T11:04:36.961Z,1017.22
2016-12-25T11:05:36.897Z,1017.18
2016-12-25T11:06:37.001Z,1017.15
2016-12-25T11:07:36.907Z,1017.2
2016-12-25T11:08:36.915Z,1017.18
2016-12-25T11:09:36.923Z,1017.24
2016-12-25T11:10:36.928Z,1017.19
2016-12-25T11:11:36.956Z,1017.21
2016-12-25T11:12:36.941Z,1017.28
2016-12-25T11:13:36.946Z,1017.35
2016-12-25T11:14:36.953Z,1017.31
2016-12-25T11:15:36.989Z,1017.32
2016-12-25T11:16:36.965Z,1017.28
2016-12-25T11:17:37.046Z,1017.29
2016-12-25T11:18:37.063Z,1017.32
2016-12-25T11:19:36.984Z,1017.27
2016-12-25T11:20:37.040Z,1017.25
2016-12-25T11:21:36.997Z,1017.21
2016-12-25T11:22:37.100Z,1017.3
2016-12-25T11:23:37.009Z,1017.15
2016-12-25T11:24:37.015Z,1017.18
2016-12-25T11:25:37.022Z,1017.32
2016-12-25T11:26:37.060Z,1017.18
2016-12-25T11:27:37.033Z,1017.27
2016-12-25T11:28:37.040Z,1017.21
2016-12-25T11:29:37.096Z,1017.17
2016-12-25T11:30:37.083Z,1017.16
2016-12-25T11:31:37.059Z,1017.2
2016-12-25T11:32:37.151Z,1017.16
2016-12-25T11:33:37.120Z,1017.22
2016-12-25T11:34:37.105Z,1017.14
2016-12-25T11:35:37.184Z,1017.1
2016-12-25T11:36:37.090Z,1017.17
2016-12-25T11:37:37.193Z,1017.11
2016-12-25T11:38:37.194Z,1017.11
2016-12-25T11:39:37.108Z,1017.04
2016-12-25T11:40:37.114Z,1016.99
2016-12-25T11:41:37.120Z,1017.05
2016-12-25T11:42:37.127Z,1017.07
2016-12-25T11:43:37.133Z,1017.08
2016-12-25T11:44:37.139Z,1016.95
2016-12-25T11:45:37.196Z,1017.02
2016-12-25T11:54:56.717Z,1016.99
2016-12-25T11:55:56.674Z,1017.04
2016-12-25T11:56:56.731Z,1017.06
2016-12-25T11:57:56.686Z,1017.01
2016-12-25T11:58:57.193Z,1016.98
2016-12-25T11:59:56.698Z,1016.95
2016-12-25T12:00:56.756Z,1016.9
2016-12-25T12:01:56.761Z,1016.89
2016-12-25T12:02:56.769Z,1016.92
2016-12-25T12:03:56.724Z,1016.91
2016-12-25T12:04:56.731Z,1016.96
2016-12-25T12:05:56.737Z,1017
2016-12-25T12:06:56.742Z,1016.98
2016-12-25T12:07:56.750Z,1017
2016-12-25T12:08:56.755Z,1016.95
2016-12-25T12:09:56.761Z,1016.94
2016-12-25T12:10:56.768Z,1017.06
2016-12-25T12:11:56.773Z,1016.95
2016-12-25T12:12:56.782Z,1016.96
2016-12-25T12:13:56.785Z,1016.98
2016-12-25T12:14:56.841Z,1016.9
2016-12-25T12:15:56.798Z,1016.93
2016-12-25T12:16:56.803Z,1016.96